Glinton, United Kingdom
Current Conditions -  °F | °C
As of 6:50 AM on Wednesday 26 Nov 2014 (Local Time) from EGXT Reporting Station
Drizzle Drizzle  
Wind Chill: 39°   Ceiling: 100
Heat Index: 45°   Visibility: 1.5mi
Dew Point: 45°   Wind: 10mph
Humidity: 100%   Direction: 60°ENE
Pressure: 29.91"   Gusts: NA
Location:  52.64°N, 0.3°W
Report Text: EGXT 260650Z AUTO 06009KT 2500 -DZ BKN001/// 07/07 Q1013
Loading
Personal Weather Stations






























Interactive Weather Map New forecast layout! Learn more

10-Day Weather Forecast

Advertisements
Track Severe Weather on mobile